sensor_id;sensor_type;location;lat;lon;timestamp;temperature;humidity
19862;DHT22;10093;48.148;8.542;2022-09-30T00:01:35;7.50;99.90
19862;DHT22;10093;48.148;8.542;2022-09-30T00:04:01;7.50;99.90
19862;DHT22;10093;48.148;8.542;2022-09-30T00:06:28;7.40;99.90
19862;DHT22;10093;48.148;8.542;2022-09-30T00:08:55;7.40;99.90
19862;DHT22;10093;48.148;8.542;2022-09-30T00:11:24;7.40;99.90
19862;DHT22;10093;48.148;8.542;2022-09-30T00:13:51;7.50;99.90
19862;DHT22;10093;48.148;8.542;2022-09-30T00:16:18;7.40;99.90
19862;DHT22;10093;48.148;8.542;2022-09-30T00:18:45;7.50;99.90
19862;DHT22;10093;48.148;8.542;2022-09-30T00:21:13;7.70;99.90
19862;DHT22;10093;48.148;8.542;2022-09-30T00:23:40;7.60;99.90
19862;DHT22;10093;48.148;8.542;2022-09-30T00:26:09;7.50;99.90
19862;DHT22;10093;48.148;8.542;2022-09-30T00:28:37;7.40;99.90
19862;DHT22;10093;48.148;8.542;2022-09-30T00:31:05;7.40;99.90
19862;DHT22;10093;48.148;8.542;2022-09-30T00:33:32;7.50;99.90
19862;DHT22;10093;48.148;8.542;2022-09-30T00:35:58;7.60;99.90
19862;DHT22;10093;48.148;8.542;2022-09-30T00:38:24;7.60;99.90
19862;DHT22;10093;48.148;8.542;2022-09-30T00:40:50;7.50;99.90
19862;DHT22;10093;48.148;8.542;2022-09-30T00:43:19;7.50;99.90
19862;DHT22;10093;48.148;8.542;2022-09-30T00:45:56;7.40;99.90
19862;DHT22;10093;48.148;8.542;2022-09-30T00:48:29;7.50;99.90
19862;DHT22;10093;48.148;8.542;2022-09-30T00:50:56;7.70;99.90
19862;DHT22;10093;48.148;8.542;2022-09-30T00:53:28;7.90;99.90
19862;DHT22;10093;48.148;8.542;2022-09-30T00:56:08;7.80;99.90
19862;DHT22;10093;48.148;8.542;2022-09-30T01:01:04;7.80;99.90
19862;DHT22;10093;48.148;8.542;2022-09-30T01:03:32;7.80;99.90
19862;DHT22;10093;48.148;8.542;2022-09-30T01:05:59;7.80;99.90
19862;DHT22;10093;48.148;8.542;2022-09-30T01:08:26;7.90;99.90
19862;DHT22;10093;48.148;8.542;2022-09-30T01:10:52;7.80;99.90
19862;DHT22;10093;48.148;8.542;2022-09-30T01:13:19;7.60;99.90
19862;DHT22;10093;48.148;8.542;2022-09-30T01:16:09;7.50;99.90
19862;DHT22;10093;48.148;8.542;2022-09-30T01:32:52;7.20;99.90
19862;DHT22;10093;48.148;8.542;2022-09-30T01:41:32;7.20;99.90
19862;DHT22;10093;48.148;8.542;2022-09-30T01:44:03;7.10;99.90
19862;DHT22;10093;48.148;8.542;2022-09-30T01:46:39;7.10;99.90
19862;DHT22;10093;48.148;8.542;2022-09-30T01:52:24;7.10;99.90
19862;DHT22;10093;48.148;8.542;2022-09-30T01:55:05;7.10;99.90
19862;DHT22;10093;48.148;8.542;2022-09-30T01:57:55;7.30;99.90
19862;DHT22;10093;48.148;8.542;2022-09-30T02:00:23;7.30;99.90
19862;DHT22;10093;48.148;8.542;2022-09-30T02:02:53;7.50;99.90
19862;DHT22;10093;48.148;8.542;2022-09-30T02:05:51;7.50;99.90
19862;DHT22;10093;48.148;8.542;2022-09-30T02:08:39;7.30;99.90
19862;DHT22;10093;48.148;8.542;2022-09-30T02:11:22;7.20;99.90
19862;DHT22;10093;48.148;8.542;2022-09-30T02:14:00;7.10;99.90
19862;DHT22;10093;48.148;8.542;2022-09-30T02:19:36;7.00;99.90
19862;DHT22;10093;48.148;8.542;2022-09-30T02:22:11;7.00;99.90
19862;DHT22;10093;48.148;8.542;2022-09-30T02:24:38;7.00;99.90
19862;DHT22;10093;48.148;8.542;2022-09-30T02:27:20;7.10;99.90
19862;DHT22;10093;48.148;8.542;2022-09-30T02:29:51;7.20;99.90
19862;DHT22;10093;48.148;8.542;2022-09-30T02:32:29;7.20;99.90
19862;DHT22;10093;48.148;8.542;2022-09-30T02:35:03;7.40;99.90
19862;DHT22;10093;48.148;8.542;2022-09-30T02:37:36;7.60;99.90
19862;DHT22;10093;48.148;8.542;2022-09-30T02:42:34;7.30;99.90
19862;DHT22;10093;48.148;8.542;2022-09-30T02:45:08;7.20;99.90
19862;DHT22;10093;48.148;8.542;2022-09-30T02:51:07;7.20;99.90
19862;DHT22;10093;48.148;8.542;2022-09-30T02:53:47;7.20;99.90
19862;DHT22;10093;48.148;8.542;2022-09-30T02:56:43;7.20;99.90
19862;DHT22;10093;48.148;8.542;2022-09-30T02:59:11;7.20;99.90
19862;DHT22;10093;48.148;8.542;2022-09-30T03:01:38;7.20;99.90
19862;DHT22;10093;48.148;8.542;2022-09-30T03:04:09;7.20;99.90
19862;DHT22;10093;48.148;8.542;2022-09-30T03:06:36;7.20;99.90
19862;DHT22;10093;48.148;8.542;2022-09-30T03:09:02;7.10;99.90
19862;DHT22;10093;48.148;8.542;2022-09-30T03:11:29;7.20;99.90
19862;DHT22;10093;48.148;8.542;2022-09-30T03:17:01;7.10;99.90
19862;DHT22;10093;48.148;8.542;2022-09-30T03:19:54;7.20;99.90
19862;DHT22;10093;48.148;8.542;2022-09-30T03:27:44;7.20;99.90
19862;DHT22;10093;48.148;8.542;2022-09-30T03:30:15;7.20;99.90
19862;DHT22;10093;48.148;8.542;2022-09-30T03:32:47;7.20;99.90
19862;DHT22;10093;48.148;8.542;2022-09-30T03:35:26;7.30;99.90
19862;DHT22;10093;48.148;8.542;2022-09-30T03:48:38;7.20;99.90
19862;DHT22;10093;48.148;8.542;2022-09-30T03:51:06;7.20;99.90
19862;DHT22;10093;48.148;8.542;2022-09-30T03:53:38;7.10;99.90
19862;DHT22;10093;48.148;8.542;2022-09-30T03:56:04;7.10;99.90
19862;DHT22;10093;48.148;8.542;2022-09-30T03:58:30;7.20;99.90
19862;DHT22;10093;48.148;8.542;2022-09-30T04:00:55;7.30;99.90
19862;DHT22;10093;48.148;8.542;2022-09-30T04:03:22;7.20;99.90
19862;DHT22;10093;48.148;8.542;2022-09-30T04:05:48;7.10;99.90
19862;DHT22;10093;48.148;8.542;2022-09-30T04:08:14;7.00;99.90
19862;DHT22;10093;48.148;8.542;2022-09-30T04:10:41;6.90;99.90
19862;DHT22;10093;48.148;8.542;2022-09-30T04:13:08;6.80;99.90
19862;DHT22;10093;48.148;8.542;2022-09-30T04:15:34;6.80;99.90
19862;DHT22;10093;48.148;8.542;2022-09-30T04:18:01;6.80;99.90
19862;DHT22;10093;48.148;8.542;2022-09-30T04:20:26;6.80;99.90
19862;DHT22;10093;48.148;8.542;2022-09-30T04:22:56;6.90;99.90
19862;DHT22;10093;48.148;8.542;2022-09-30T04:25:22;6.90;99.90
19862;DHT22;10093;48.148;8.542;2022-09-30T04:27:47;7.00;99.90
19862;DHT22;10093;48.148;8.542;2022-09-30T04:30:13;7.00;99.90
19862;DHT22;10093;48.148;8.542;2022-09-30T04:32:42;7.00;99.90
19862;DHT22;10093;48.148;8.542;2022-09-30T04:35:13;7.00;99.90
19862;DHT22;10093;48.148;8.542;2022-09-30T04:37:42;7.00;99.90
19862;DHT22;10093;48.148;8.542;2022-09-30T04:40:09;7.00;99.90
19862;DHT22;10093;48.148;8.542;2022-09-30T04:42:35;7.00;99.90
19862;DHT22;10093;48.148;8.542;2022-09-30T04:45:01;7.00;99.90
19862;DHT22;10093;48.148;8.542;2022-09-30T04:47:27;7.00;99.90
19862;DHT22;10093;48.148;8.542;2022-09-30T04:49:54;7.00;99.90
19862;DHT22;10093;48.148;8.542;2022-09-30T04:52:20;7.00;99.90
19862;DHT22;10093;48.148;8.542;2022-09-30T04:54:46;7.00;99.90
19862;DHT22;10093;48.148;8.542;2022-09-30T04:57:12;7.00;99.90
19862;DHT22;10093;48.148;8.542;2022-09-30T04:59:38;7.10;99.90
19862;DHT22;10093;48.148;8.542;2022-09-30T05:02:04;7.00;99.90
19862;DHT22;10093;48.148;8.542;2022-09-30T05:04:30;7.10;99.90
19862;DHT22;10093;48.148;8.542;2022-09-30T05:06:58;7.00;99.90
19862;DHT22;10093;48.148;8.542;2022-09-30T05:09:24;7.00;99.90
19862;DHT22;10093;48.148;8.542;2022-09-30T05:11:50;6.90;99.90
19862;DHT22;10093;48.148;8.542;2022-09-30T05:14:16;6.90;99.90
19862;DHT22;10093;48.148;8.542;2022-09-30T05:16:42;6.90;99.90
19862;DHT22;10093;48.148;8.542;2022-09-30T05:19:08;6.90;99.90
19862;DHT22;10093;48.148;8.542;2022-09-30T05:21:33;6.90;99.90
19862;DHT22;10093;48.148;8.542;2022-09-30T05:24:00;6.90;99.90
19862;DHT22;10093;48.148;8.542;2022-09-30T05:26:26;7.00;99.90
19862;DHT22;10093;48.148;8.542;2022-09-30T05:28:52;7.00;99.90
19862;DHT22;10093;48.148;8.542;2022-09-30T05:31:18;7.00;99.90
19862;DHT22;10093;48.148;8.542;2022-09-30T05:33:45;7.10;99.90
19862;DHT22;10093;48.148;8.542;2022-09-30T05:36:13;7.30;99.90
19862;DHT22;10093;48.148;8.542;2022-09-30T05:38:39;7.30;99.90
19862;DHT22;10093;48.148;8.542;2022-09-30T05:41:09;7.20;99.90
19862;DHT22;10093;48.148;8.542;2022-09-30T05:43:39;7.10;99.90
19862;DHT22;10093;48.148;8.542;2022-09-30T05:46:05;7.00;99.90
19862;DHT22;10093;48.148;8.542;2022-09-30T05:48:31;7.10;99.90
19862;DHT22;10093;48.148;8.542;2022-09-30T05:50:57;7.30;99.90
19862;DHT22;10093;48.148;8.542;2022-09-30T05:53:26;7.40;99.90
19862;DHT22;10093;48.148;8.542;2022-09-30T05:55:52;7.50;99.90
19862;DHT22;10093;48.148;8.542;2022-09-30T05:58:18;7.50;99.90
19862;DHT22;10093;48.148;8.542;2022-09-30T06:00:46;7.50;99.90
19862;DHT22;10093;48.148;8.542;2022-09-30T06:03:13;7.60;99.90
19862;DHT22;10093;48.148;8.542;2022-09-30T06:05:40;7.70;99.90
19862;DHT22;10093;48.148;8.542;2022-09-30T06:08:05;7.70;99.90
19862;DHT22;10093;48.148;8.542;2022-09-30T06:10:34;7.70;99.90
19862;DHT22;10093;48.148;8.542;2022-09-30T06:13:03;7.60;99.90
19862;DHT22;10093;48.148;8.542;2022-09-30T06:15:30;7.70;99.90
19862;DHT22;10093;48.148;8.542;2022-09-30T06:17:55;7.70;99.90
19862;DHT22;10093;48.148;8.542;2022-09-30T06:20:21;7.90;99.90
19862;DHT22;10093;48.148;8.542;2022-09-30T06:22:47;7.90;99.90
19862;DHT22;10093;48.148;8.542;2022-09-30T06:25:13;7.90;99.90
19862;DHT22;10093;48.148;8.542;2022-09-30T06:27:39;7.70;99.90
19862;DHT22;10093;48.148;8.542;2022-09-30T06:30:06;7.70;99.90
19862;DHT22;10093;48.148;8.542;2022-09-30T06:32:32;7.50;99.90
19862;DHT22;10093;48.148;8.542;2022-09-30T06:34:57;7.70;99.90
19862;DHT22;10093;48.148;8.542;2022-09-30T06:37:23;8.00;99.90
19862;DHT22;10093;48.148;8.542;2022-09-30T06:39:49;8.00;99.90
19862;DHT22;10093;48.148;8.542;2022-09-30T06:42:16;7.90;99.90
19862;DHT22;10093;48.148;8.542;2022-09-30T06:44:42;7.60;99.90
19862;DHT22;10093;48.148;8.542;2022-09-30T06:47:09;7.50;99.90
19862;DHT22;10093;48.148;8.542;2022-09-30T06:49:35;7.50;99.90
19862;DHT22;10093;48.148;8.542;2022-09-30T06:52:00;7.60;99.90
19862;DHT22;10093;48.148;8.542;2022-09-30T06:54:26;7.40;99.90
19862;DHT22;10093;48.148;8.542;2022-09-30T06:56:53;7.50;99.90
19862;DHT22;10093;48.148;8.542;2022-09-30T06:59:24;7.40;99.90
19862;DHT22;10093;48.148;8.542;2022-09-30T07:01:50;7.30;99.90
19862;DHT22;10093;48.148;8.542;2022-09-30T07:04:16;7.10;99.90
19862;DHT22;10093;48.148;8.542;2022-09-30T07:06:42;6.90;99.90
19862;DHT22;10093;48.148;8.542;2022-09-30T07:09:09;6.90;99.90
19862;DHT22;10093;48.148;8.542;2022-09-30T07:11:36;6.90;99.90
19862;DHT22;10093;48.148;8.542;2022-09-30T07:14:02;7.00;99.90
19862;DHT22;10093;48.148;8.542;2022-09-30T07:16:29;7.30;99.90
19862;DHT22;10093;48.148;8.542;2022-09-30T07:18:56;7.50;99.90
19862;DHT22;10093;48.148;8.542;2022-09-30T07:21:23;7.80;99.90
19862;DHT22;10093;48.148;8.542;2022-09-30T07:23:49;8.00;99.90
19862;DHT22;10093;48.148;8.542;2022-09-30T07:26:19;8.10;99.90
19862;DHT22;10093;48.148;8.542;2022-09-30T07:28:45;8.20;99.90
19862;DHT22;10093;48.148;8.542;2022-09-30T07:31:17;8.30;99.90
19862;DHT22;10093;48.148;8.542;2022-09-30T07:33:43;8.50;99.90
19862;DHT22;10093;48.148;8.542;2022-09-30T07:36:10;8.60;99.90
19862;DHT22;10093;48.148;8.542;2022-09-30T07:38:38;8.80;99.90
19862;DHT22;10093;48.148;8.542;2022-09-30T07:41:15;8.90;99.90
19862;DHT22;10093;48.148;8.542;2022-09-30T07:43:45;9.10;99.90
19862;DHT22;10093;48.148;8.542;2022-09-30T07:46:13;9.00;99.90
19862;DHT22;10093;48.148;8.542;2022-09-30T07:48:41;9.10;99.90
19862;DHT22;10093;48.148;8.542;2022-09-30T07:51:15;9.30;99.90
19862;DHT22;10093;48.148;8.542;2022-09-30T07:53:45;9.70;99.90
19862;DHT22;10093;48.148;8.542;2022-09-30T07:56:11;9.90;99.90
19862;DHT22;10093;48.148;8.542;2022-09-30T07:58:37;10.00;99.90
19862;DHT22;10093;48.148;8.542;2022-09-30T08:01:04;10.20;99.90
19862;DHT22;10093;48.148;8.542;2022-09-30T08:03:35;10.50;99.90
19862;DHT22;10093;48.148;8.542;2022-09-30T08:06:08;10.70;99.90
19862;DHT22;10093;48.148;8.542;2022-09-30T08:08:35;10.80;99.90
19862;DHT22;10093;48.148;8.542;2022-09-30T08:11:02;11.30;99.90
19862;DHT22;10093;48.148;8.542;2022-09-30T08:13:28;11.60;99.90
19862;DHT22;10093;48.148;8.542;2022-09-30T08:15:54;11.40;99.90
19862;DHT22;10093;48.148;8.542;2022-09-30T08:18:19;11.30;99.90
19862;DHT22;10093;48.148;8.542;2022-09-30T08:20:45;11.10;99.90
19862;DHT22;10093;48.148;8.542;2022-09-30T08:23:11;10.90;99.90
19862;DHT22;10093;48.148;8.542;2022-09-30T08:25:36;11.00;99.90
19862;DHT22;10093;48.148;8.542;2022-09-30T08:28:02;10.70;99.90
19862;DHT22;10093;48.148;8.542;2022-09-30T08:30:28;10.70;99.90
19862;DHT22;10093;48.148;8.542;2022-09-30T08:32:53;11.10;99.90
19862;DHT22;10093;48.148;8.542;2022-09-30T08:35:19;11.40;99.90
19862;DHT22;10093;48.148;8.542;2022-09-30T08:37:44;11.60;99.90
19862;DHT22;10093;48.148;8.542;2022-09-30T08:40:22;11.40;99.90
19862;DHT22;10093;48.148;8.542;2022-09-30T08:48:42;11.20;99.90
19862;DHT22;10093;48.148;8.542;2022-09-30T08:53:50;11.70;99.90
19862;DHT22;10093;48.148;8.542;2022-09-30T08:56:28;12.10;99.90
19862;DHT22;10093;48.148;8.542;2022-09-30T08:59:00;11.40;99.90
19862;DHT22;10093;48.148;8.542;2022-09-30T09:01:32;11.40;99.90
19862;DHT22;10093;48.148;8.542;2022-09-30T09:03:59;11.70;99.90
19862;DHT22;10093;48.148;8.542;2022-09-30T09:06:33;11.70;99.90
19862;DHT22;10093;48.148;8.542;2022-09-30T09:15:26;13.00;99.90
19862;DHT22;10093;48.148;8.542;2022-09-30T09:18:23;13.30;99.90
19862;DHT22;10093;48.148;8.542;2022-09-30T09:20:22;14.30;99.90
19862;DHT22;10093;48.148;8.542;2022-09-30T09:22:50;16.00;99.90
19862;DHT22;10093;48.148;8.542;2022-09-30T09:25:19;16.60;99.90
19862;DHT22;10093;48.148;8.542;2022-09-30T09:27:56;16.50;99.90
19862;DHT22;10093;48.148;8.542;2022-09-30T09:30:25;16.60;99.90
19862;DHT22;10093;48.148;8.542;2022-09-30T09:32:57;16.50;99.90
19862;DHT22;10093;48.148;8.542;2022-09-30T09:35:32;16.50;99.90
19862;DHT22;10093;48.148;8.542;2022-09-30T09:38:18;15.00;99.90
19862;DHT22;10093;48.148;8.542;2022-09-30T09:41:09;15.50;99.90
19862;DHT22;10093;48.148;8.542;2022-09-30T09:43:54;15.30;99.90
19862;DHT22;10093;48.148;8.542;2022-09-30T09:46:29;15.10;99.90
19862;DHT22;10093;48.148;8.542;2022-09-30T09:51:42;14.40;99.90
19862;DHT22;10093;48.148;8.542;2022-09-30T09:54:12;14.70;99.90
19862;DHT22;10093;48.148;8.542;2022-09-30T09:56:39;15.90;99.90
19862;DHT22;10093;48.148;8.542;2022-09-30T09:59:12;16.40;99.90
19862;DHT22;10093;48.148;8.542;2022-09-30T10:01:43;16.40;99.90
19862;DHT22;10093;48.148;8.542;2022-09-30T10:04:18;15.50;99.90
19862;DHT22;10093;48.148;8.542;2022-09-30T10:06:51;15.80;99.90
19862;DHT22;10093;48.148;8.542;2022-09-30T10:09:27;15.70;99.90
19862;DHT22;10093;48.148;8.542;2022-09-30T10:14:37;15.50;99.90
19862;DHT22;10093;48.148;8.542;2022-09-30T10:17:23;15.60;99.90
19862;DHT22;10093;48.148;8.542;2022-09-30T10:19:53;16.10;99.90
19862;DHT22;10093;48.148;8.542;2022-09-30T10:22:27;15.30;99.90
19862;DHT22;10093;48.148;8.542;2022-09-30T10:25:18;15.80;99.90
19862;DHT22;10093;48.148;8.542;2022-09-30T10:27:54;17.30;99.90
19862;DHT22;10093;48.148;8.542;2022-09-30T10:30:43;19.40;99.90
19862;DHT22;10093;48.148;8.542;2022-09-30T10:36:16;21.40;99.90
19862;DHT22;10093;48.148;8.542;2022-09-30T10:38:54;20.50;99.90
19862;DHT22;10093;48.148;8.542;2022-09-30T10:41:24;20.00;99.90
19862;DHT22;10093;48.148;8.542;2022-09-30T10:43:53;20.60;99.90
19862;DHT22;10093;48.148;8.542;2022-09-30T10:46:31;20.00;99.90
19862;DHT22;10093;48.148;8.542;2022-09-30T10:48:58;20.00;99.90
19862;DHT22;10093;48.148;8.542;2022-09-30T10:51:44;22.30;99.90
19862;DHT22;10093;48.148;8.542;2022-09-30T10:57:17;23.10;99.90
19862;DHT22;10093;48.148;8.542;2022-09-30T10:59:44;23.70;99.90
19862;DHT22;10093;48.148;8.542;2022-09-30T11:05:22;27.50;99.90
19862;DHT22;10093;48.148;8.542;2022-09-30T11:10:46;26.00;99.90
19862;DHT22;10093;48.148;8.542;2022-09-30T11:15:57;23.00;99.90
19862;DHT22;10093;48.148;8.542;2022-09-30T11:18:40;21.30;99.90
19862;DHT22;10093;48.148;8.542;2022-09-30T11:21:12;20.10;99.90
19862;DHT22;10093;48.148;8.542;2022-09-30T11:29:44;18.90;99.90
19862;DHT22;10093;48.148;8.542;2022-09-30T11:40:30;16.00;99.90
19862;DHT22;10093;48.148;8.542;2022-09-30T11:43:03;16.50;99.90
19862;DHT22;10093;48.148;8.542;2022-09-30T12:04:56;23.50;99.90
19862;DHT22;10093;48.148;8.542;2022-09-30T12:07:48;20.90;99.90
19862;DHT22;10093;48.148;8.542;2022-09-30T12:10:33;21.80;99.90
19862;DHT22;10093;48.148;8.542;2022-09-30T12:13:16;22.90;99.90
19862;DHT22;10093;48.148;8.542;2022-09-30T12:15:43;23.40;99.90
19862;DHT22;10093;48.148;8.542;2022-09-30T12:18:15;23.00;99.90
19862;DHT22;10093;48.148;8.542;2022-09-30T12:20:52;21.40;99.90
19862;DHT22;10093;48.148;8.542;2022-09-30T12:23:44;21.80;99.90
19862;DHT22;10093;48.148;8.542;2022-09-30T12:26:11;21.90;99.90
19862;DHT22;10093;48.148;8.542;2022-09-30T12:37:35;19.70;99.90
19862;DHT22;10093;48.148;8.542;2022-09-30T12:48:56;20.00;99.90
19862;DHT22;10093;48.148;8.542;2022-09-30T12:51:30;18.50;99.90
19862;DHT22;10093;48.148;8.542;2022-09-30T12:54:09;18.70;99.90
19862;DHT22;10093;48.148;8.542;2022-09-30T12:56:59;18.60;99.90
19862;DHT22;10093;48.148;8.542;2022-09-30T12:59:31;18.50;99.90
19862;DHT22;10093;48.148;8.542;2022-09-30T13:01:59;17.30;99.90
19862;DHT22;10093;48.148;8.542;2022-09-30T13:04:39;15.80;99.90
19862;DHT22;10093;48.148;8.542;2022-09-30T13:07:19;14.90;99.90
19862;DHT22;10093;48.148;8.542;2022-09-30T13:10:42;15.30;99.90
19862;DHT22;10093;48.148;8.542;2022-09-30T13:13:11;15.20;99.90
19862;DHT22;10093;48.148;8.542;2022-09-30T13:23:38;15.30;99.90
19862;DHT22;10093;48.148;8.542;2022-09-30T13:26:30;15.10;99.90
19862;DHT22;10093;48.148;8.542;2022-09-30T13:34:26;14.70;99.90
19862;DHT22;10093;48.148;8.542;2022-09-30T13:37:00;14.70;99.90
19862;DHT22;10093;48.148;8.542;2022-09-30T13:39:52;14.70;99.90
19862;DHT22;10093;48.148;8.542;2022-09-30T13:48:11;14.80;99.90
19862;DHT22;10093;48.148;8.542;2022-09-30T13:50:48;14.60;99.90
19862;DHT22;10093;48.148;8.542;2022-09-30T13:53:36;14.70;99.90
19862;DHT22;10093;48.148;8.542;2022-09-30T13:56:12;14.60;99.90
19862;DHT22;10093;48.148;8.542;2022-09-30T14:15:01;13.80;99.90
19862;DHT22;10093;48.148;8.542;2022-09-30T14:23:00;14.30;99.90
19862;DHT22;10093;48.148;8.542;2022-09-30T14:25:31;14.70;99.90
19862;DHT22;10093;48.148;8.542;2022-09-30T14:28:03;14.80;99.90
19862;DHT22;10093;48.148;8.542;2022-09-30T14:30:42;14.90;99.90
19862;DHT22;10093;48.148;8.542;2022-09-30T14:33:31;14.90;99.90
19862;DHT22;10093;48.148;8.542;2022-09-30T14:36:01;15.00;99.90
19862;DHT22;10093;48.148;8.542;2022-09-30T14:38:29;15.00;99.90
19862;DHT22;10093;48.148;8.542;2022-09-30T14:40:59;15.00;99.90
19862;DHT22;10093;48.148;8.542;2022-09-30T14:43:31;15.30;99.90
19862;DHT22;10093;48.148;8.542;2022-09-30T14:46:05;15.50;99.90
19862;DHT22;10093;48.148;8.542;2022-09-30T14:48:35;15.60;99.90
19862;DHT22;10093;48.148;8.542;2022-09-30T14:51:08;15.90;99.90
19862;DHT22;10093;48.148;8.542;2022-09-30T14:53:39;15.90;99.90
19862;DHT22;10093;48.148;8.542;2022-09-30T14:56:20;15.60;99.90
19862;DHT22;10093;48.148;8.542;2022-09-30T14:58:47;15.80;99.90
19862;DHT22;10093;48.148;8.542;2022-09-30T15:01:17;16.00;99.90
19862;DHT22;10093;48.148;8.542;2022-09-30T15:04:05;16.40;99.90
19862;DHT22;10093;48.148;8.542;2022-09-30T15:06:36;16.90;99.90
19862;DHT22;10093;48.148;8.542;2022-09-30T15:09:13;17.60;99.90
19862;DHT22;10093;48.148;8.542;2022-09-30T15:11:40;18.30;99.90
19862;DHT22;10093;48.148;8.542;2022-09-30T15:14:16;18.00;99.90
19862;DHT22;10093;48.148;8.542;2022-09-30T15:16:53;17.10;99.90
19862;DHT22;10093;48.148;8.542;2022-09-30T15:19:28;16.70;99.90
19862;DHT22;10093;48.148;8.542;2022-09-30T15:21:56;18.00;99.90
19862;DHT22;10093;48.148;8.542;2022-09-30T15:24:27;19.40;99.90
19862;DHT22;10093;48.148;8.542;2022-09-30T15:26:56;18.90;99.90
19862;DHT22;10093;48.148;8.542;2022-09-30T15:29:22;19.80;99.90
19862;DHT22;10093;48.148;8.542;2022-09-30T15:31:52;20.10;99.90
19862;DHT22;10093;48.148;8.542;2022-09-30T15:34:21;20.30;99.90
19862;DHT22;10093;48.148;8.542;2022-09-30T15:37:00;19.70;99.90
19862;DHT22;10093;48.148;8.542;2022-09-30T15:39:33;19.80;99.90
19862;DHT22;10093;48.148;8.542;2022-09-30T15:42:37;19.30;99.90
19862;DHT22;10093;48.148;8.542;2022-09-30T15:47:57;20.40;99.90
19862;DHT22;10093;48.148;8.542;2022-09-30T15:50:42;20.10;99.90
19862;DHT22;10093;48.148;8.542;2022-09-30T15:53:15;19.60;99.90
19862;DHT22;10093;48.148;8.542;2022-09-30T15:55:45;18.70;99.90
19862;DHT22;10093;48.148;8.542;2022-09-30T15:58:32;18.10;99.90
19862;DHT22;10093;48.148;8.542;2022-09-30T16:01:21;17.40;99.90
19862;DHT22;10093;48.148;8.542;2022-09-30T16:09:05;15.60;99.90
19862;DHT22;10093;48.148;8.542;2022-09-30T16:11:38;15.00;99.90
19862;DHT22;10093;48.148;8.542;2022-09-30T16:14:16;14.60;99.90
19862;DHT22;10093;48.148;8.542;2022-09-30T16:16:47;14.40;99.90
19862;DHT22;10093;48.148;8.542;2022-09-30T16:19:16;14.20;99.90
19862;DHT22;10093;48.148;8.542;2022-09-30T16:21:45;14.00;99.90
19862;DHT22;10093;48.148;8.542;2022-09-30T16:26:56;13.70;99.90
19862;DHT22;10093;48.148;8.542;2022-09-30T16:29:23;13.40;99.90
19862;DHT22;10093;48.148;8.542;2022-09-30T16:31:54;13.20;99.90
19862;DHT22;10093;48.148;8.542;2022-09-30T16:34:24;12.90;99.90
19862;DHT22;10093;48.148;8.542;2022-09-30T16:36:52;12.80;99.90
19862;DHT22;10093;48.148;8.542;2022-09-30T16:39:19;12.50;99.90
19862;DHT22;10093;48.148;8.542;2022-09-30T16:41:45;12.30;99.90
19862;DHT22;10093;48.148;8.542;2022-09-30T16:44:11;12.10;99.90
19862;DHT22;10093;48.148;8.542;2022-09-30T16:46:37;12.00;99.90
19862;DHT22;10093;48.148;8.542;2022-09-30T16:49:15;12.00;99.90
19862;DHT22;10093;48.148;8.542;2022-09-30T16:51:41;11.90;99.90
19862;DHT22;10093;48.148;8.542;2022-09-30T16:54:08;11.70;99.90
19862;DHT22;10093;48.148;8.542;2022-09-30T16:56:33;11.70;99.90
19862;DHT22;10093;48.148;8.542;2022-09-30T16:58:59;11.60;99.90
19862;DHT22;10093;48.148;8.542;2022-09-30T17:01:25;11.30;99.90
19862;DHT22;10093;48.148;8.542;2022-09-30T17:03:54;11.20;99.90
19862;DHT22;10093;48.148;8.542;2022-09-30T17:06:25;11.10;99.90
19862;DHT22;10093;48.148;8.542;2022-09-30T17:08:51;11.10;99.90
19862;DHT22;10093;48.148;8.542;2022-09-30T17:11:18;11.10;99.90
19862;DHT22;10093;48.148;8.542;2022-09-30T17:13:44;10.90;99.90
19862;DHT22;10093;48.148;8.542;2022-09-30T17:16:11;10.80;99.90
19862;DHT22;10093;48.148;8.542;2022-09-30T17:18:37;10.70;99.90
19862;DHT22;10093;48.148;8.542;2022-09-30T17:21:02;10.70;99.90
19862;DHT22;10093;48.148;8.542;2022-09-30T17:23:28;10.60;99.90
19862;DHT22;10093;48.148;8.542;2022-09-30T17:25:54;10.60;99.90
19862;DHT22;10093;48.148;8.542;2022-09-30T17:28:20;10.50;99.90
19862;DHT22;10093;48.148;8.542;2022-09-30T17:30:47;10.40;99.90
19862;DHT22;10093;48.148;8.542;2022-09-30T17:33:13;10.30;99.90
19862;DHT22;10093;48.148;8.542;2022-09-30T17:35:39;10.20;99.90
19862;DHT22;10093;48.148;8.542;2022-09-30T17:38:10;10.10;99.90
19862;DHT22;10093;48.148;8.542;2022-09-30T17:40:36;10.00;99.90
19862;DHT22;10093;48.148;8.542;2022-09-30T17:43:20;10.00;99.90
19862;DHT22;10093;48.148;8.542;2022-09-30T17:45:48;10.00;99.90
19862;DHT22;10093;48.148;8.542;2022-09-30T17:48:20;10.00;99.90
19862;DHT22;10093;48.148;8.542;2022-09-30T17:50:47;9.90;99.90
19862;DHT22;10093;48.148;8.542;2022-09-30T17:53:14;9.90;99.90
19862;DHT22;10093;48.148;8.542;2022-09-30T17:55:44;10.00;99.90
19862;DHT22;10093;48.148;8.542;2022-09-30T17:58:13;9.90;99.90
19862;DHT22;10093;48.148;8.542;2022-09-30T18:00:38;9.90;99.90
19862;DHT22;10093;48.148;8.542;2022-09-30T18:03:04;10.20;99.90
19862;DHT22;10093;48.148;8.542;2022-09-30T18:05:31;10.30;99.90
19862;DHT22;10093;48.148;8.542;2022-09-30T18:08:00;10.10;99.90
19862;DHT22;10093;48.148;8.542;2022-09-30T18:10:26;10.00;99.90
19862;DHT22;10093;48.148;8.542;2022-09-30T18:12:53;10.00;99.90
19862;DHT22;10093;48.148;8.542;2022-09-30T18:15:20;10.00;99.90
19862;DHT22;10093;48.148;8.542;2022-09-30T18:17:46;9.90;99.90
19862;DHT22;10093;48.148;8.542;2022-09-30T18:20:13;9.90;99.90
19862;DHT22;10093;48.148;8.542;2022-09-30T18:22:39;9.90;99.90
19862;DHT22;10093;48.148;8.542;2022-09-30T18:25:06;9.80;99.90
19862;DHT22;10093;48.148;8.542;2022-09-30T18:28:17;9.90;99.90
19862;DHT22;10093;48.148;8.542;2022-09-30T18:30:37;10.20;99.90
19862;DHT22;10093;48.148;8.542;2022-09-30T18:33:04;10.20;99.90
19862;DHT22;10093;48.148;8.542;2022-09-30T18:35:33;10.00;99.90
19862;DHT22;10093;48.148;8.542;2022-09-30T18:37:59;10.30;99.90
19862;DHT22;10093;48.148;8.542;2022-09-30T18:40:27;10.30;99.90
19862;DHT22;10093;48.148;8.542;2022-09-30T18:42:58;10.30;99.90
19862;DHT22;10093;48.148;8.542;2022-09-30T18:45:25;10.20;99.90
19862;DHT22;10093;48.148;8.542;2022-09-30T18:47:54;10.10;99.90
19862;DHT22;10093;48.148;8.542;2022-09-30T18:50:20;10.00;99.90
19862;DHT22;10093;48.148;8.542;2022-09-30T18:55:18;10.00;99.90
19862;DHT22;10093;48.148;8.542;2022-09-30T18:57:44;9.90;99.90
19862;DHT22;10093;48.148;8.542;2022-09-30T19:00:13;10.10;99.90
19862;DHT22;10093;48.148;8.542;2022-09-30T19:02:41;10.10;99.90
19862;DHT22;10093;48.148;8.542;2022-09-30T19:05:09;9.90;99.90
19862;DHT22;10093;48.148;8.542;2022-09-30T19:07:35;9.90;99.90
19862;DHT22;10093;48.148;8.542;2022-09-30T19:10:01;9.80;99.90
19862;DHT22;10093;48.148;8.542;2022-09-30T19:12:31;10.10;99.90
19862;DHT22;10093;48.148;8.542;2022-09-30T19:14:57;9.90;99.90